sensor_id;sensor_type;location;lat;lon;timestamp;pressure;altitude;pressure_sealevel;temperature;humidity
50550;BME280;36505;52.512;13.460;2023-02-28T00:01:30;102628.91;;;1.66;67.11
50550;BME280;36505;52.512;13.460;2023-02-28T00:03:55;102630.47;;;1.78;67.09
50550;BME280;36505;52.512;13.460;2023-02-28T00:06:21;102636.59;;;1.80;66.72
50550;BME280;36505;52.512;13.460;2023-02-28T00:08:47;102637.88;;;1.76;66.32
50550;BME280;36505;52.512;13.460;2023-02-28T00:11:14;102617.56;;;1.63;66.59
50550;BME280;36505;52.512;13.460;2023-02-28T00:13:42;102640.59;;;1.76;66.64
50550;BME280;36505;52.512;13.460;2023-02-28T00:16:11;102635.88;;;1.78;66.27
50550;BME280;36505;52.512;13.460;2023-02-28T00:18:38;102633.75;;;1.72;66.26
50550;BME280;36505;52.512;13.460;2023-02-28T00:21:04;102621.53;;;1.68;66.48
50550;BME280;36505;52.512;13.460;2023-02-28T00:23:30;102630.91;;;1.74;66.29
50550;BME280;36505;52.512;13.460;2023-02-28T00:25:55;102638.56;;;1.78;66.08
50550;BME280;36505;52.512;13.460;2023-02-28T00:28:21;102624.94;;;1.61;66.78
50550;BME280;36505;52.512;13.460;2023-02-28T00:30:47;102621.09;;;1.53;67.16
50550;BME280;36505;52.512;13.460;2023-02-28T00:33:12;102641.13;;;1.61;67.09
50550;BME280;36505;52.512;13.460;2023-02-28T00:35:38;102635.72;;;1.61;67.04
50550;BME280;36505;52.512;13.460;2023-02-28T00:38:03;102634.84;;;1.50;66.95
50550;BME280;36505;52.512;13.460;2023-02-28T00:40:29;102641.56;;;1.56;67.21
50550;BME280;36505;52.512;13.460;2023-02-28T00:42:55;102633.59;;;1.54;67.04
50550;BME280;36505;52.512;13.460;2023-02-28T00:45:20;102639.72;;;1.56;67.31
50550;BME280;36505;52.512;13.460;2023-02-28T00:47:46;102636.84;;;1.58;67.33
50550;BME280;36505;52.512;13.460;2023-02-28T00:50:16;102635.88;;;1.59;67.46
50550;BME280;36505;52.512;13.460;2023-02-28T00:52:41;102643.25;;;1.57;67.46
50550;BME280;36505;52.512;13.460;2023-02-28T00:55:07;102620.19;;;1.43;67.37
50550;BME280;36505;52.512;13.460;2023-02-28T00:57:32;102642.13;;;1.50;67.80
50550;BME280;36505;52.512;13.460;2023-02-28T00:59:57;102637.97;;;1.46;68.02
50550;BME280;36505;52.512;13.460;2023-02-28T01:02:23;102638.81;;;1.46;67.98
50550;BME280;36505;52.512;13.460;2023-02-28T01:04:49;102632.28;;;1.30;68.30
50550;BME280;36505;52.512;13.460;2023-02-28T01:07:14;102640.81;;;1.35;68.45
50550;BME280;36505;52.512;13.460;2023-02-28T01:09:40;102644.75;;;1.31;68.54
50550;BME280;36505;52.512;13.460;2023-02-28T01:12:07;102636.50;;;1.23;68.76
50550;BME280;36505;52.512;13.460;2023-02-28T01:14:33;102639.78;;;1.26;68.76
50550;BME280;36505;52.512;13.460;2023-02-28T01:16:59;102625.44;;;1.26;68.58
50550;BME280;36505;52.512;13.460;2023-02-28T01:19:24;102627.31;;;1.35;68.34
50550;BME280;36505;52.512;13.460;2023-02-28T01:21:50;102629.16;;;1.34;68.53
50550;BME280;36505;52.512;13.460;2023-02-28T01:24:15;102625.72;;;1.32;68.14
50550;BME280;36505;52.512;13.460;2023-02-28T01:26:40;102630.00;;;1.35;68.51
50550;BME280;36505;52.512;13.460;2023-02-28T01:29:06;102615.19;;;1.19;68.81
50550;BME280;36505;52.512;13.460;2023-02-28T01:31:31;102610.91;;;1.17;68.57
50550;BME280;36505;52.512;13.460;2023-02-28T01:33:57;102619.16;;;1.25;69.16
50550;BME280;36505;52.512;13.460;2023-02-28T01:36:23;102616.91;;;1.21;69.19
50550;BME280;36505;52.512;13.460;2023-02-28T01:38:49;102622.97;;;1.13;69.39
50550;BME280;36505;52.512;13.460;2023-02-28T01:46:11;102617.41;;;1.05;69.84
50550;BME280;36505;52.512;13.460;2023-02-28T01:48:40;102607.72;;;0.93;69.89
50550;BME280;36505;52.512;13.460;2023-02-28T01:51:13;102614.69;;;0.95;70.10
50550;BME280;36505;52.512;13.460;2023-02-28T01:53:47;102621.63;;;0.88;70.29
50550;BME280;36505;52.512;13.460;2023-02-28T01:56:16;102623.31;;;0.89;70.62
50550;BME280;36505;52.512;13.460;2023-02-28T01:58:50;102624.31;;;0.88;70.48
50550;BME280;36505;52.512;13.460;2023-02-28T02:01:16;102611.75;;;0.77;70.66
50550;BME280;36505;52.512;13.460;2023-02-28T02:03:59;102614.47;;;0.77;70.58
50550;BME280;36505;52.512;13.460;2023-02-28T02:06:29;102620.41;;;0.71;70.69
50550;BME280;36505;52.512;13.460;2023-02-28T02:08:55;102624.69;;;0.74;70.80
50550;BME280;36505;52.512;13.460;2023-02-28T02:11:22;102617.81;;;0.70;70.81
50550;BME280;36505;52.512;13.460;2023-02-28T02:17:06;102624.19;;;0.69;71.09
50550;BME280;36505;52.512;13.460;2023-02-28T02:36:19;102608.28;;;0.35;72.60
50550;BME280;36505;52.512;13.460;2023-02-28T02:39:14;102622.47;;;0.37;72.49
50550;BME280;36505;52.512;13.460;2023-02-28T02:44:30;102613.34;;;0.29;73.15
50550;BME280;36505;52.512;13.460;2023-02-28T02:47:05;102621.28;;;0.30;72.60
50550;BME280;36505;52.512;13.460;2023-02-28T02:49:33;102625.81;;;0.30;72.89
50550;BME280;36505;52.512;13.460;2023-02-28T02:52:10;102619.72;;;0.28;72.86
50550;BME280;36505;52.512;13.460;2023-02-28T02:54:40;102610.06;;;0.25;72.95
50550;BME280;36505;52.512;13.460;2023-02-28T02:57:11;102622.03;;;0.32;73.26
50550;BME280;36505;52.512;13.460;2023-02-28T02:59:40;102622.16;;;0.31;73.42
50550;BME280;36505;52.512;13.460;2023-02-28T03:02:08;102626.94;;;0.27;73.31
50550;BME280;36505;52.512;13.460;2023-02-28T03:04:39;102635.00;;;0.27;73.42
50550;BME280;36505;52.512;13.460;2023-02-28T03:07:06;102618.41;;;0.22;73.41
50550;BME280;36505;52.512;13.460;2023-02-28T03:09:33;102614.72;;;0.23;73.31
50550;BME280;36505;52.512;13.460;2023-02-28T03:12:01;102624.41;;;0.26;73.28
50550;BME280;36505;52.512;13.460;2023-02-28T03:15:24;102629.91;;;0.24;73.33
50550;BME280;36505;52.512;13.460;2023-02-28T03:18:06;102634.56;;;0.22;73.50
50550;BME280;36505;52.512;13.460;2023-02-28T03:23:42;102623.59;;;0.14;73.19
50550;BME280;36505;52.512;13.460;2023-02-28T03:26:19;102633.00;;;0.20;73.51
50550;BME280;36505;52.512;13.460;2023-02-28T03:31:37;102630.22;;;0.10;73.63
50550;BME280;36505;52.512;13.460;2023-02-28T03:34:19;102629.13;;;0.13;73.51
50550;BME280;36505;52.512;13.460;2023-02-28T03:36:51;102625.25;;;0.06;73.46
50550;BME280;36505;52.512;13.460;2023-02-28T03:39:30;102629.78;;;0.05;73.55
50550;BME280;36505;52.512;13.460;2023-02-28T03:42:06;102624.06;;;-0.02;73.97
50550;BME280;36505;52.512;13.460;2023-02-28T03:44:51;102630.63;;;0.06;73.87
50550;BME280;36505;52.512;13.460;2023-02-28T03:50:06;102637.41;;;0.00;74.07
50550;BME280;36505;52.512;13.460;2023-02-28T03:52:43;102634.81;;;-0.02;73.82
50550;BME280;36505;52.512;13.460;2023-02-28T03:55:12;102635.69;;;-0.01;74.01
50550;BME280;36505;52.512;13.460;2023-02-28T03:57:58;102634.22;;;-0.05;74.12
50550;BME280;36505;52.512;13.460;2023-02-28T04:00:37;102642.41;;;-0.07;74.09
50550;BME280;36505;52.512;13.460;2023-02-28T04:03:04;102639.72;;;-0.07;74.15
50550;BME280;36505;52.512;13.460;2023-02-28T04:05:29;102631.31;;;-0.13;74.12
50550;BME280;36505;52.512;13.460;2023-02-28T04:08:06;102629.47;;;-0.13;74.26
50550;BME280;36505;52.512;13.460;2023-02-28T04:10:32;102643.44;;;-0.08;74.12
50550;BME280;36505;52.512;13.460;2023-02-28T04:12:57;102637.44;;;-0.11;73.82
50550;BME280;36505;52.512;13.460;2023-02-28T04:15:23;102641.09;;;-0.12;74.30
50550;BME280;36505;52.512;13.460;2023-02-28T04:17:49;102634.41;;;-0.18;74.33
50550;BME280;36505;52.512;13.460;2023-02-28T04:20:15;102642.94;;;-0.13;73.96
50550;BME280;36505;52.512;13.460;2023-02-28T04:22:40;102647.75;;;-0.16;74.09
50550;BME280;36505;52.512;13.460;2023-02-28T04:25:06;102647.97;;;-0.19;74.12
50550;BME280;36505;52.512;13.460;2023-02-28T04:27:32;102637.03;;;-0.27;73.83
50550;BME280;36505;52.512;13.460;2023-02-28T04:29:57;102648.84;;;-0.19;74.12
50550;BME280;36505;52.512;13.460;2023-02-28T04:32:23;102634.44;;;-0.29;74.11
50550;BME280;36505;52.512;13.460;2023-02-28T04:34:48;102642.66;;;-0.30;74.37
50550;BME280;36505;52.512;13.460;2023-02-28T04:37:13;102649.22;;;-0.23;74.56
50550;BME280;36505;52.512;13.460;2023-02-28T04:39:39;102646.31;;;-0.31;74.43
50550;BME280;36505;52.512;13.460;2023-02-28T04:42:05;102652.31;;;-0.28;74.62
50550;BME280;36505;52.512;13.460;2023-02-28T04:44:30;102647.41;;;-0.34;74.55
50550;BME280;36505;52.512;13.460;2023-02-28T04:46:56;102650.72;;;-0.30;74.59
50550;BME280;36505;52.512;13.460;2023-02-28T04:49:22;102653.41;;;-0.30;74.47
50550;BME280;36505;52.512;13.460;2023-02-28T04:51:47;102643.66;;;-0.43;74.31
50550;BME280;36505;52.512;13.460;2023-02-28T04:54:12;102660.75;;;-0.32;74.65
50550;BME280;36505;52.512;13.460;2023-02-28T04:56:38;102647.06;;;-0.41;74.26
50550;BME280;36505;52.512;13.460;2023-02-28T04:59:03;102662.59;;;-0.33;74.75
50550;BME280;36505;52.512;13.460;2023-02-28T05:01:32;102637.66;;;-0.46;74.38
50550;BME280;36505;52.512;13.460;2023-02-28T05:04:00;102664.41;;;-0.33;74.51
50550;BME280;36505;52.512;13.460;2023-02-28T05:06:28;102653.19;;;-0.38;74.82
50550;BME280;36505;52.512;13.460;2023-02-28T05:08:53;102663.72;;;-0.35;74.52
50550;BME280;36505;52.512;13.460;2023-02-28T05:13:52;102664.34;;;-0.43;75.15
50550;BME280;36505;52.512;13.460;2023-02-28T05:16:19;102670.59;;;-0.43;75.30
50550;BME280;36505;52.512;13.460;2023-02-28T05:18:45;102670.81;;;-0.46;75.45
50550;BME280;36505;52.512;13.460;2023-02-28T05:23:58;102678.44;;;-0.51;74.80
50550;BME280;36505;52.512;13.460;2023-02-28T05:26:25;102665.00;;;-0.62;75.07
50550;BME280;36505;52.512;13.460;2023-02-28T05:28:51;102671.34;;;-0.63;74.96
50550;BME280;36505;52.512;13.460;2023-02-28T05:31:16;102679.53;;;-0.53;74.95
50550;BME280;36505;52.512;13.460;2023-02-28T05:33:41;102676.34;;;-0.58;74.96
50550;BME280;36505;52.512;13.460;2023-02-28T05:36:07;102673.91;;;-0.50;75.09
50550;BME280;36505;52.512;13.460;2023-02-28T05:38:32;102664.72;;;-0.59;75.19
50550;BME280;36505;52.512;13.460;2023-02-28T05:40:58;102681.84;;;-0.49;75.20
50550;BME280;36505;52.512;13.460;2023-02-28T05:43:23;102685.53;;;-0.50;75.20
50550;BME280;36505;52.512;13.460;2023-02-28T05:45:49;102669.53;;;-0.62;75.08
50550;BME280;36505;52.512;13.460;2023-02-28T05:48:15;102688.56;;;-0.54;75.20
50550;BME280;36505;52.512;13.460;2023-02-28T05:50:40;102691.88;;;-0.51;75.59
50550;BME280;36505;52.512;13.460;2023-02-28T05:53:07;102691.88;;;-0.51;74.85
50550;BME280;36505;52.512;13.460;2023-02-28T05:55:33;102686.63;;;-0.52;75.21
50550;BME280;36505;52.512;13.460;2023-02-28T05:58:01;102682.94;;;-0.51;75.17
50550;BME280;36505;52.512;13.460;2023-02-28T06:00:26;102684.03;;;-0.54;75.09
50550;BME280;36505;52.512;13.460;2023-02-28T06:02:52;102696.88;;;-0.46;74.86
50550;BME280;36505;52.512;13.460;2023-02-28T06:05:21;102688.56;;;-0.54;75.35
50550;BME280;36505;52.512;13.460;2023-02-28T06:07:47;102680.50;;;-0.54;75.23
50550;BME280;36505;52.512;13.460;2023-02-28T06:10:13;102681.13;;;-0.51;74.69
50550;BME280;36505;52.512;13.460;2023-02-28T06:12:38;102689.31;;;-0.41;74.81
50550;BME280;36505;52.512;13.460;2023-02-28T06:15:04;102694.53;;;-0.40;74.14
50550;BME280;36505;52.512;13.460;2023-02-28T06:17:30;102698.44;;;-0.32;73.59
50550;BME280;36505;52.512;13.460;2023-02-28T06:19:55;102697.06;;;-0.27;73.21
50550;BME280;36505;52.512;13.460;2023-02-28T06:22:21;102701.53;;;-0.05;72.60
50550;BME280;36505;52.512;13.460;2023-02-28T06:24:46;102699.75;;;0.16;71.88
50550;BME280;36505;52.512;13.460;2023-02-28T06:27:12;102703.56;;;0.34;70.77
50550;BME280;36505;52.512;13.460;2023-02-28T06:29:37;102690.78;;;0.48;70.51
50550;BME280;36505;52.512;13.460;2023-02-28T06:32:05;102701.69;;;0.88;70.04
50550;BME280;36505;52.512;13.460;2023-02-28T06:34:30;102697.78;;;1.11;68.94
50550;BME280;36505;52.512;13.460;2023-02-28T06:36:56;102700.09;;;1.55;68.45
50550;BME280;36505;52.512;13.460;2023-02-28T06:39:21;102710.00;;;2.05;66.78
50550;BME280;36505;52.512;13.460;2023-02-28T06:41:47;102696.47;;;2.43;64.24
50550;BME280;36505;52.512;13.460;2023-02-28T06:44:16;102719.00;;;3.00;62.54
50550;BME280;36505;52.512;13.460;2023-02-28T06:46:43;102726.00;;;3.30;61.99
50550;BME280;36505;52.512;13.460;2023-02-28T06:49:10;102720.47;;;3.58;60.70
50550;BME280;36505;52.512;13.460;2023-02-28T06:51:37;102693.13;;;3.97;58.77
50550;BME280;36505;52.512;13.460;2023-02-28T06:54:03;102722.00;;;4.59;56.91
50550;BME280;36505;52.512;13.460;2023-02-28T06:56:29;102724.81;;;4.93;56.06
50550;BME280;36505;52.512;13.460;2023-02-28T06:58:54;102727.44;;;5.37;52.93
50550;BME280;36505;52.512;13.460;2023-02-28T07:01:21;102730.34;;;5.77;50.58
50550;BME280;36505;52.512;13.460;2023-02-28T07:03:48;102723.16;;;6.18;50.08
50550;BME280;36505;52.512;13.460;2023-02-28T07:06:20;102721.00;;;6.54;49.03
50550;BME280;36505;52.512;13.460;2023-02-28T07:08:47;102731.50;;;7.06;46.20
50550;BME280;36505;52.512;13.460;2023-02-28T07:11:17;102724.31;;;7.13;45.40
50550;BME280;36505;52.512;13.460;2023-02-28T07:13:42;102736.22;;;7.20;45.08
50550;BME280;36505;52.512;13.460;2023-02-28T07:16:10;102735.91;;;7.07;44.30
50550;BME280;36505;52.512;13.460;2023-02-28T07:18:37;102739.56;;;7.38;43.43
50550;BME280;36505;52.512;13.460;2023-02-28T07:21:04;102737.38;;;7.42;43.31
50550;BME280;36505;52.512;13.460;2023-02-28T07:23:31;102730.59;;;7.77;43.24
50550;BME280;36505;52.512;13.460;2023-02-28T07:25:56;102726.41;;;8.20;41.49
50550;BME280;36505;52.512;13.460;2023-02-28T07:28:22;102721.72;;;8.37;40.99
50550;BME280;36505;52.512;13.460;2023-02-28T07:30:47;102725.25;;;8.14;40.09
50550;BME280;36505;52.512;13.460;2023-02-28T07:33:13;102720.75;;;8.21;40.55
50550;BME280;36505;52.512;13.460;2023-02-28T07:35:39;102730.09;;;8.27;39.47
50550;BME280;36505;52.512;13.460;2023-02-28T07:38:04;102723.72;;;8.43;38.85
50550;BME280;36505;52.512;13.460;2023-02-28T07:40:30;102730.09;;;8.27;38.35
50550;BME280;36505;52.512;13.460;2023-02-28T07:42:55;102736.06;;;8.53;39.34
50550;BME280;36505;52.512;13.460;2023-02-28T07:45:20;102713.94;;;8.71;38.02
50550;BME280;36505;52.512;13.460;2023-02-28T07:47:46;102716.38;;;8.81;37.36
50550;BME280;36505;52.512;13.460;2023-02-28T07:50:13;102733.31;;;9.43;36.56
50550;BME280;36505;52.512;13.460;2023-02-28T07:52:39;102718.69;;;9.80;36.31
50550;BME280;36505;52.512;13.460;2023-02-28T07:55:06;102728.06;;;10.21;35.37
50550;BME280;36505;52.512;13.460;2023-02-28T07:57:32;102722.25;;;10.52;33.85
50550;BME280;36505;52.512;13.460;2023-02-28T07:59:57;102727.78;;;10.80;34.31
50550;BME280;36505;52.512;13.460;2023-02-28T08:02:23;102727.22;;;10.63;32.66
50550;BME280;36505;52.512;13.460;2023-02-28T08:04:49;102735.97;;;11.01;31.96
50550;BME280;36505;52.512;13.460;2023-02-28T08:07:15;102728.47;;;11.79;30.46
50550;BME280;36505;52.512;13.460;2023-02-28T08:09:41;102721.47;;;12.44;29.59
50550;BME280;36505;52.512;13.460;2023-02-28T08:12:07;102732.25;;;12.52;28.54
50550;BME280;36505;52.512;13.460;2023-02-28T08:14:33;102721.09;;;12.86;28.40
50550;BME280;36505;52.512;13.460;2023-02-28T08:16:59;102722.94;;;13.38;28.77
50550;BME280;36505;52.512;13.460;2023-02-28T08:19:24;102723.66;;;13.78;28.05
50550;BME280;36505;52.512;13.460;2023-02-28T08:21:50;102725.44;;;14.11;27.14
50550;BME280;36505;52.512;13.460;2023-02-28T08:24:15;102719.34;;;14.34;27.45
50550;BME280;36505;52.512;13.460;2023-02-28T08:26:40;102707.47;;;14.96;26.01
50550;BME280;36505;52.512;13.460;2023-02-28T08:29:06;102712.47;;;15.49;25.20
50550;BME280;36505;52.512;13.460;2023-02-28T08:31:31;102717.16;;;15.05;25.43
50550;BME280;36505;52.512;13.460;2023-02-28T08:33:57;102713.13;;;15.44;24.10
50550;BME280;36505;52.512;13.460;2023-02-28T08:36:24;102732.69;;;16.15;24.26
50550;BME280;36505;52.512;13.460;2023-02-28T08:38:49;102726.19;;;15.92;25.22
50550;BME280;36505;52.512;13.460;2023-02-28T08:41:15;102727.69;;;15.76;23.86
50550;BME280;36505;52.512;13.460;2023-02-28T08:43:40;102729.59;;;15.75;23.53
50550;BME280;36505;52.512;13.460;2023-02-28T08:46:06;102727.50;;;15.10;23.86
50550;BME280;36505;52.512;13.460;2023-02-28T08:48:34;102727.00;;;15.62;23.52
50550;BME280;36505;52.512;13.460;2023-02-28T08:51:03;102720.53;;;16.65;22.66
50550;BME280;36505;52.512;13.460;2023-02-28T08:53:29;102722.25;;;16.59;22.11
50550;BME280;36505;52.512;13.460;2023-02-28T08:55:59;102727.38;;;16.74;21.92
50550;BME280;36505;52.512;13.460;2023-02-28T08:58:25;102729.56;;;16.53;23.96
50550;BME280;36505;52.512;13.460;2023-02-28T09:00:51;102721.88;;;17.44;22.32
50550;BME280;36505;52.512;13.460;2023-02-28T09:03:17;102725.00;;;18.39;21.35
50550;BME280;36505;52.512;13.460;2023-02-28T09:06:00;102720.59;;;17.98;20.15
50550;BME280;36505;52.512;13.460;2023-02-28T09:08:29;102722.56;;;18.42;19.77
50550;BME280;36505;52.512;13.460;2023-02-28T09:10:55;102732.59;;;17.17;21.41
50550;BME280;36505;52.512;13.460;2023-02-28T09:13:25;102727.56;;;17.25;21.82
50550;BME280;36505;52.512;13.460;2023-02-28T09:15:51;102728.25;;;16.97;22.21
50550;BME280;36505;52.512;13.460;2023-02-28T09:18:16;102714.75;;;16.36;22.88
50550;BME280;36505;52.512;13.460;2023-02-28T09:20:43;102723.81;;;17.31;20.00
50550;BME280;36505;52.512;13.460;2023-02-28T09:23:09;102731.56;;;16.35;21.61
50550;BME280;36505;52.512;13.460;2023-02-28T09:25:36;102715.88;;;16.17;22.94
50550;BME280;36505;52.512;13.460;2023-02-28T09:28:01;102727.88;;;16.94;21.91
50550;BME280;36505;52.512;13.460;2023-02-28T09:30:28;102726.16;;;16.40;22.10
50550;BME280;36505;52.512;13.460;2023-02-28T09:32:54;102723.44;;;17.63;21.13
50550;BME280;36505;52.512;13.460;2023-02-28T09:35:21;102720.81;;;17.33;20.11
50550;BME280;36505;52.512;13.460;2023-02-28T09:37:48;102726.56;;;16.13;21.63
50550;BME280;36505;52.512;13.460;2023-02-28T09:40:15;102728.16;;;15.30;21.41
50550;BME280;36505;52.512;13.460;2023-02-28T09:42:45;102733.66;;;15.55;22.31
50550;BME280;36505;52.512;13.460;2023-02-28T09:45:33;102724.94;;;15.76;22.17
50550;BME280;36505;52.512;13.460;2023-02-28T09:48:13;102727.72;;;16.06;21.68
50550;BME280;36505;52.512;13.460;2023-02-28T09:50:46;102734.63;;;16.15;22.70
50550;BME280;36505;52.512;13.460;2023-02-28T09:53:30;102738.63;;;16.01;22.82
50550;BME280;36505;52.512;13.460;2023-02-28T09:56:07;102731.31;;;15.33;23.40
50550;BME280;36505;52.512;13.460;2023-02-28T09:58:45;102736.25;;;15.07;22.23
50550;BME280;36505;52.512;13.460;2023-02-28T10:01:23;102732.22;;;15.27;22.41
50550;BME280;36505;52.512;13.460;2023-02-28T10:03:55;102740.06;;;15.49;22.12
50550;BME280;36505;52.512;13.460;2023-02-28T10:06:26;102737.22;;;14.94;22.38
50550;BME280;36505;52.512;13.460;2023-02-28T10:08:58;102734.72;;;14.86;21.95
50550;BME280;36505;52.512;13.460;2023-02-28T10:11:27;102735.78;;;14.53;23.43
50550;BME280;36505;52.512;13.460;2023-02-28T10:18:50;102731.84;;;15.97;21.72
50550;BME280;36505;52.512;13.460;2023-02-28T10:21:22;102735.81;;;15.89;21.91
50550;BME280;36505;52.512;13.460;2023-02-28T10:23:53;102728.38;;;15.90;21.80
50550;BME280;36505;52.512;13.460;2023-02-28T10:26:22;102715.97;;;15.37;22.19
50550;BME280;36505;52.512;13.460;2023-02-28T10:28:51;102729.59;;;15.75;22.35
50550;BME280;36505;52.512;13.460;2023-02-28T10:31:19;102724.84;;;15.83;21.56
50550;BME280;36505;52.512;13.460;2023-02-28T10:33:44;102722.75;;;15.41;22.57
50550;BME280;36505;52.512;13.460;2023-02-28T10:36:19;102730.66;;;15.13;22.18
50550;BME280;36505;52.512;13.460;2023-02-28T10:38:46;102726.09;;;15.25;22.69
50550;BME280;36505;52.512;13.460;2023-02-28T10:41:14;102726.34;;;14.99;22.09
50550;BME280;36505;52.512;13.460;2023-02-28T10:43:42;102725.31;;;15.36;22.19
50550;BME280;36505;52.512;13.460;2023-02-28T10:48:40;102730.81;;;15.79;22.48
50550;BME280;36505;52.512;13.460;2023-02-28T10:51:09;102723.94;;;15.27;22.39
50550;BME280;36505;52.512;13.460;2023-02-28T10:56:19;102726.78;;;14.71;22.95
50550;BME280;36505;52.512;13.460;2023-02-28T10:58:59;102711.41;;;14.82;23.74
50550;BME280;36505;52.512;13.460;2023-02-28T11:01:43;102708.84;;;14.55;24.03
50550;BME280;36505;52.512;13.460;2023-02-28T11:04:19;102707.25;;;14.73;23.23
50550;BME280;36505;52.512;13.460;2023-02-28T11:06:46;102700.41;;;14.19;24.31
50550;BME280;36505;52.512;13.460;2023-02-28T11:09:22;102690.16;;;13.43;24.55
50550;BME280;36505;52.512;13.460;2023-02-28T11:11:49;102697.81;;;13.09;25.15
50550;BME280;36505;52.512;13.460;2023-02-28T11:14:22;102696.53;;;13.18;24.75
50550;BME280;36505;52.512;13.460;2023-02-28T11:16:50;102698.44;;;12.84;25.32
50550;BME280;36505;52.512;13.460;2023-02-28T11:19:23;102696.53;;;12.65;25.69
50550;BME280;36505;52.512;13.460;2023-02-28T11:22:00;102688.03;;;12.07;26.33
50550;BME280;36505;52.512;13.460;2023-02-28T11:24:35;102695.16;;;12.02;27.02
50550;BME280;36505;52.512;13.460;2023-02-28T11:27:02;102690.34;;;11.63;27.84
50550;BME280;36505;52.512;13.460;2023-02-28T11:29:32;102691.81;;;11.18;28.73
50550;BME280;36505;52.512;13.460;2023-02-28T11:32:19;102688.47;;;10.94;29.30
50550;BME280;36505;52.512;13.460;2023-02-28T11:34:46;102689.31;;;10.95;29.30
50550;BME280;36505;52.512;13.460;2023-02-28T11:37:18;102689.06;;;10.90;29.40
50550;BME280;36505;52.512;13.460;2023-02-28T11:39:45;102690.66;;;10.78;28.98
50550;BME280;36505;52.512;13.460;2023-02-28T11:52:52;102699.25;;;8.49;31.79
50550;BME280;36505;52.512;13.460;2023-02-28T11:55:35;102709.41;;;7.79;33.29
50550;BME280;36505;52.512;13.460;2023-02-28T11:58:27;102695.16;;;7.69;33.88
50550;BME280;36505;52.512;13.460;2023-02-28T12:01:15;102699.09;;;7.66;34.40
50550;BME280;36505;52.512;13.460;2023-02-28T12:28:16;102674.66;;;5.89;37.72
50550;BME280;36505;52.512;13.460;2023-02-28T12:30:54;102650.81;;;5.75;37.53
50550;BME280;36505;52.512;13.460;2023-02-28T12:33:26;102662.59;;;5.92;37.96
50550;BME280;36505;52.512;13.460;2023-02-28T12:35:59;102660.38;;;5.87;37.27
50550;BME280;36505;52.512;13.460;2023-02-28T12:38:29;102656.91;;;5.69;36.83
50550;BME280;36505;52.512;13.460;2023-02-28T12:41:18;102660.22;;;5.47;37.04
50550;BME280;36505;52.512;13.460;2023-02-28T12:43:49;102627.19;;;5.18;37.88
50550;BME280;36505;52.512;13.460;2023-02-28T12:46:27;102630.38;;;5.13;38.36
50550;BME280;36505;52.512;13.460;2023-02-28T12:48:59;102638.53;;;5.13;38.01
50550;BME280;36505;52.512;13.460;2023-02-28T12:51:28;102624.78;;;5.14;38.20
50550;BME280;36505;52.512;13.460;2023-02-28T12:56:33;102624.75;;;5.06;38.53
50550;BME280;36505;52.512;13.460;2023-02-28T12:59:25;102614.91;;;5.05;38.42
50550;BME280;36505;52.512;13.460;2023-02-28T13:10:02;102612.53;;;5.02;39.46
50550;BME280;36505;52.512;13.460;2023-02-28T13:12:29;102584.81;;;4.91;39.25
50550;BME280;36505;52.512;13.460;2023-02-28T13:15:07;102602.38;;;5.04;39.64
50550;BME280;36505;52.512;13.460;2023-02-28T13:17:37;102605.75;;;5.06;39.46
50550;BME280;36505;52.512;13.460;2023-02-28T13:20:04;102606.56;;;4.99;39.88
50550;BME280;36505;52.512;13.460;2023-02-28T13:22:47;102599.59;;;4.96;40.37
50550;BME280;36505;52.512;13.460;2023-02-28T13:27:55;102614.88;;;4.97;39.79
50550;BME280;36505;52.512;13.460;2023-02-28T13:33:21;102597.69;;;4.89;40.21
50550;BME280;36505;52.512;13.460;2023-02-28T13:35:48;102586.28;;;4.77;39.43
50550;BME280;36505;52.512;13.460;2023-02-28T13:38:22;102585.25;;;4.78;39.71
50550;BME280;36505;52.512;13.460;2023-02-28T13:40:48;102596.59;;;4.73;39.68
50550;BME280;36505;52.512;13.460;2023-02-28T13:43:16;102592.66;;;4.68;39.90
50550;BME280;36505;52.512;13.460;2023-02-28T13:46:09;102604.38;;;4.68;40.11
50550;BME280;36505;52.512;13.460;2023-02-28T13:48:35;102600.75;;;4.60;39.62
50550;BME280;36505;52.512;13.460;2023-02-28T13:51:43;102596.50;;;4.57;40.07
50550;BME280;36505;52.512;13.460;2023-02-28T13:59:38;102595.03;;;4.71;39.42
50550;BME280;36505;52.512;13.460;2023-02-28T14:05:01;102570.91;;;4.60;39.60
50550;BME280;36505;52.512;13.460;2023-02-28T14:07:33;102568.34;;;4.58;39.67
50550;BME280;36505;52.512;13.460;2023-02-28T14:10:06;102584.84;;;4.65;39.45
50550;BME280;36505;52.512;13.460;2023-02-28T14:17:56;102572.25;;;4.56;40.15
50550;BME280;36505;52.512;13.460;2023-02-28T14:20:26;102586.88;;;4.63;40.18
50550;BME280;36505;52.512;13.460;2023-02-28T14:23:06;102586.38;;;4.67;40.10
50550;BME280;36505;52.512;13.460;2023-02-28T14:25:44;102582.66;;;4.68;39.74
50550;BME280;36505;52.512;13.460;2023-02-28T14:28:27;102592.66;;;4.68;40.05
50550;BME280;36505;52.512;13.460;2023-02-28T14:31:09;102588.41;;;4.65;39.69
50550;BME280;36505;52.512;13.460;2023-02-28T14:33:59;102581.41;;;4.55;39.70
50550;BME280;36505;52.512;13.460;2023-02-28T14:36:37;102581.91;;;4.58;39.86
50550;BME280;36505;52.512;13.460;2023-02-28T14:39:07;102567.47;;;4.50;39.92
50550;BME280;36505;52.512;13.460;2023-02-28T14:41:33;102578.69;;;4.55;39.90
50550;BME280;36505;52.512;13.460;2023-02-28T14:44:23;102585.44;;;4.51;40.10
50550;BME280;36505;52.512;13.460;2023-02-28T14:46:55;102578.63;;;4.47;40.44
50550;BME280;36505;52.512;13.460;2023-02-28T14:49:30;102582.34;;;4.46;40.15
50550;BME280;36505;52.512;13.460;2023-02-28T14:52:26;102561.50;;;4.46;40.05
50550;BME280;36505;52.512;13.460;2023-02-28T14:54:54;102570.66;;;4.45;40.63